sensor_id;sensor_type;location;lat;lon;timestamp;P1;durP1;ratioP1;P2;durP2;ratioP2
62582;SDS011;48641;51.676;5.808;2022-08-11T00:01:42;4.03;;;1.95;;
62582;SDS011;48641;51.676;5.808;2022-08-11T00:04:13;4.03;;;1.90;;
62582;SDS011;48641;51.676;5.808;2022-08-11T00:06:42;4.78;;;1.95;;
62582;SDS011;48641;51.676;5.808;2022-08-11T00:09:10;4.18;;;1.95;;
62582;SDS011;48641;51.676;5.808;2022-08-11T00:11:50;3.78;;;1.90;;
62582;SDS011;48641;51.676;5.808;2022-08-11T00:14:19;5.65;;;2.03;;
62582;SDS011;48641;51.676;5.808;2022-08-11T00:16:56;3.63;;;1.70;;
62582;SDS011;48641;51.676;5.808;2022-08-11T00:19:35;4.20;;;1.88;;
62582;SDS011;48641;51.676;5.808;2022-08-11T00:22:03;4.50;;;2.00;;
62582;SDS011;48641;51.676;5.808;2022-08-11T00:24:38;6.13;;;1.98;;
62582;SDS011;48641;51.676;5.808;2022-08-11T00:27:05;4.45;;;1.80;;
62582;SDS011;48641;51.676;5.808;2022-08-11T00:29:31;3.63;;;1.80;;
62582;SDS011;48641;51.676;5.808;2022-08-11T00:31:59;5.13;;;2.10;;
62582;SDS011;48641;51.676;5.808;2022-08-11T00:34:28;4.20;;;2.10;;
62582;SDS011;48641;51.676;5.808;2022-08-11T00:36:59;4.72;;;2.10;;
62582;SDS011;48641;51.676;5.808;2022-08-11T00:39:27;4.65;;;2.03;;
62582;SDS011;48641;51.676;5.808;2022-08-11T00:47:20;4.53;;;2.10;;
62582;SDS011;48641;51.676;5.808;2022-08-11T00:50:05;3.55;;;1.90;;
62582;SDS011;48641;51.676;5.808;2022-08-11T01:00:54;3.35;;;1.65;;
62582;SDS011;48641;51.676;5.808;2022-08-11T01:06:45;4.72;;;1.92;;
62582;SDS011;48641;51.676;5.808;2022-08-11T01:09:26;4.35;;;1.73;;
62582;SDS011;48641;51.676;5.808;2022-08-11T01:32:00;4.72;;;1.98;;
62582;SDS011;48641;51.676;5.808;2022-08-11T01:46:14;4.65;;;2.45;;
62582;SDS011;48641;51.676;5.808;2022-08-11T01:51:45;5.00;;;2.08;;
62582;SDS011;48641;51.676;5.808;2022-08-11T02:05:46;4.38;;;1.98;;
62582;SDS011;48641;51.676;5.808;2022-08-11T02:08:44;4.00;;;2.10;;
62582;SDS011;48641;51.676;5.808;2022-08-11T02:11:25;4.90;;;1.90;;
62582;SDS011;48641;51.676;5.808;2022-08-11T02:25:56;5.03;;;1.80;;
62582;SDS011;48641;51.676;5.808;2022-08-11T02:28:47;5.15;;;1.90;;
62582;SDS011;48641;51.676;5.808;2022-08-11T02:47:34;4.57;;;1.90;;
62582;SDS011;48641;51.676;5.808;2022-08-11T02:50:18;5.60;;;1.90;;
62582;SDS011;48641;51.676;5.808;2022-08-11T02:55:44;5.00;;;2.00;;
62582;SDS011;48641;51.676;5.808;2022-08-11T03:01:40;4.65;;;2.25;;
62582;SDS011;48641;51.676;5.808;2022-08-11T03:05:20;5.18;;;2.08;;
62582;SDS011;48641;51.676;5.808;2022-08-11T03:12:53;4.53;;;1.92;;
62582;SDS011;48641;51.676;5.808;2022-08-11T03:18:33;4.32;;;1.98;;
62582;SDS011;48641;51.676;5.808;2022-08-11T03:21:16;4.40;;;2.03;;
62582;SDS011;48641;51.676;5.808;2022-08-11T03:27:08;4.18;;;1.90;;
62582;SDS011;48641;51.676;5.808;2022-08-11T03:32:20;4.13;;;1.90;;
62582;SDS011;48641;51.676;5.808;2022-08-11T03:34:53;4.18;;;1.85;;
62582;SDS011;48641;51.676;5.808;2022-08-11T03:37:38;4.18;;;1.88;;
62582;SDS011;48641;51.676;5.808;2022-08-11T03:46:02;5.15;;;2.10;;
62582;SDS011;48641;51.676;5.808;2022-08-11T03:49:16;4.72;;;2.30;;
62582;SDS011;48641;51.676;5.808;2022-08-11T03:51:54;3.67;;;1.90;;
62582;SDS011;48641;51.676;5.808;2022-08-11T03:59:59;5.43;;;2.08;;
62582;SDS011;48641;51.676;5.808;2022-08-11T04:11:54;4.30;;;2.20;;
62582;SDS011;48641;51.676;5.808;2022-08-11T04:17:56;5.63;;;2.10;;
62582;SDS011;48641;51.676;5.808;2022-08-11T04:20:43;5.28;;;2.10;;
62582;SDS011;48641;51.676;5.808;2022-08-11T04:29:13;4.95;;;2.30;;
62582;SDS011;48641;51.676;5.808;2022-08-11T04:32:17;5.22;;;2.30;;
62582;SDS011;48641;51.676;5.808;2022-08-11T04:38:20;5.85;;;2.20;;
62582;SDS011;48641;51.676;5.808;2022-08-11T04:50:45;5.22;;;2.50;;
62582;SDS011;48641;51.676;5.808;2022-08-11T04:57:42;5.78;;;2.30;;
62582;SDS011;48641;51.676;5.808;2022-08-11T05:04:06;6.05;;;2.22;;
62582;SDS011;48641;51.676;5.808;2022-08-11T05:10:17;6.78;;;2.60;;
62582;SDS011;48641;51.676;5.808;2022-08-11T05:15:51;4.15;;;2.05;;
62582;SDS011;48641;51.676;5.808;2022-08-11T05:18:47;5.35;;;2.30;;
62582;SDS011;48641;51.676;5.808;2022-08-11T05:21:33;6.75;;;2.30;;
62582;SDS011;48641;51.676;5.808;2022-08-11T05:24:19;7.18;;;2.67;;
62582;SDS011;48641;51.676;5.808;2022-08-11T05:27:11;6.13;;;2.58;;
62582;SDS011;48641;51.676;5.808;2022-08-11T05:30:15;4.32;;;2.10;;
62582;SDS011;48641;51.676;5.808;2022-08-11T05:33:11;6.30;;;2.60;;
62582;SDS011;48641;51.676;5.808;2022-08-11T05:39:01;5.35;;;2.40;;
62582;SDS011;48641;51.676;5.808;2022-08-11T05:41:50;4.72;;;2.20;;
62582;SDS011;48641;51.676;5.808;2022-08-11T05:44:43;6.15;;;2.38;;
62582;SDS011;48641;51.676;5.808;2022-08-11T05:47:28;7.78;;;2.40;;
62582;SDS011;48641;51.676;5.808;2022-08-11T05:50:13;4.32;;;2.05;;
62582;SDS011;48641;51.676;5.808;2022-08-11T05:52:58;4.60;;;2.20;;
62582;SDS011;48641;51.676;5.808;2022-08-11T05:55:44;5.30;;;2.38;;
62582;SDS011;48641;51.676;5.808;2022-08-11T05:58:39;5.70;;;2.30;;
62582;SDS011;48641;51.676;5.808;2022-08-11T06:01:07;4.70;;;2.27;;
62582;SDS011;48641;51.676;5.808;2022-08-11T06:03:34;6.15;;;2.30;;
62582;SDS011;48641;51.676;5.808;2022-08-11T06:06:20;4.68;;;2.05;;
62582;SDS011;48641;51.676;5.808;2022-08-11T06:08:46;5.45;;;2.40;;
62582;SDS011;48641;51.676;5.808;2022-08-11T06:11:12;5.45;;;2.17;;
62582;SDS011;48641;51.676;5.808;2022-08-11T06:13:44;4.63;;;2.10;;
62582;SDS011;48641;51.676;5.808;2022-08-11T06:18:38;6.03;;;2.65;;
62582;SDS011;48641;51.676;5.808;2022-08-11T06:21:07;4.93;;;2.20;;
62582;SDS011;48641;51.676;5.808;2022-08-11T06:23:35;6.40;;;2.25;;
62582;SDS011;48641;51.676;5.808;2022-08-11T06:26:04;6.03;;;2.45;;
62582;SDS011;48641;51.676;5.808;2022-08-11T06:28:34;4.90;;;2.25;;
62582;SDS011;48641;51.676;5.808;2022-08-11T06:31:08;5.55;;;2.58;;
62582;SDS011;48641;51.676;5.808;2022-08-11T06:37:07;4.93;;;2.10;;
62582;SDS011;48641;51.676;5.808;2022-08-11T06:42:04;10.90;;;2.92;;
62582;SDS011;48641;51.676;5.808;2022-08-11T06:44:43;14.57;;;3.00;;
62582;SDS011;48641;51.676;5.808;2022-08-11T06:47:18;10.20;;;2.92;;
62582;SDS011;48641;51.676;5.808;2022-08-11T06:49:44;12.25;;;2.92;;
62582;SDS011;48641;51.676;5.808;2022-08-11T06:52:31;9.68;;;2.75;;
62582;SDS011;48641;51.676;5.808;2022-08-11T06:55:03;9.75;;;2.60;;
62582;SDS011;48641;51.676;5.808;2022-08-11T06:57:39;8.45;;;2.88;;
62582;SDS011;48641;51.676;5.808;2022-08-11T07:00:29;7.18;;;2.60;;
62582;SDS011;48641;51.676;5.808;2022-08-11T07:03:07;8.63;;;2.78;;
62582;SDS011;48641;51.676;5.808;2022-08-11T07:08:34;10.20;;;3.05;;
62582;SDS011;48641;51.676;5.808;2022-08-11T07:14:11;6.47;;;3.00;;
62582;SDS011;48641;51.676;5.808;2022-08-11T07:17:03;8.52;;;2.70;;
62582;SDS011;48641;51.676;5.808;2022-08-11T07:19:35;7.55;;;2.53;;
62582;SDS011;48641;51.676;5.808;2022-08-11T07:22:23;6.80;;;2.90;;
62582;SDS011;48641;51.676;5.808;2022-08-11T07:25:12;6.03;;;2.47;;
62582;SDS011;48641;51.676;5.808;2022-08-11T07:28:02;5.57;;;2.50;;
62582;SDS011;48641;51.676;5.808;2022-08-11T07:30:54;6.63;;;2.78;;
62582;SDS011;48641;51.676;5.808;2022-08-11T07:33:30;6.05;;;2.17;;
62582;SDS011;48641;51.676;5.808;2022-08-11T07:36:05;6.13;;;2.30;;
62582;SDS011;48641;51.676;5.808;2022-08-11T07:38:40;8.85;;;2.80;;
62582;SDS011;48641;51.676;5.808;2022-08-11T07:41:15;9.30;;;3.00;;
62582;SDS011;48641;51.676;5.808;2022-08-11T07:43:43;8.63;;;2.65;;
62582;SDS011;48641;51.676;5.808;2022-08-11T07:46:14;13.20;;;3.58;;
62582;SDS011;48641;51.676;5.808;2022-08-11T07:49:00;8.95;;;3.28;;
62582;SDS011;48641;51.676;5.808;2022-08-11T07:51:47;13.63;;;3.30;;
62582;SDS011;48641;51.676;5.808;2022-08-11T07:54:32;11.15;;;3.30;;
62582;SDS011;48641;51.676;5.808;2022-08-11T07:57:00;10.50;;;3.42;;
62582;SDS011;48641;51.676;5.808;2022-08-11T07:59:47;10.80;;;3.28;;
62582;SDS011;48641;51.676;5.808;2022-08-11T08:02:32;15.75;;;3.25;;
62582;SDS011;48641;51.676;5.808;2022-08-11T08:05:17;11.52;;;3.50;;
62582;SDS011;48641;51.676;5.808;2022-08-11T08:08:03;12.15;;;3.38;;
62582;SDS011;48641;51.676;5.808;2022-08-11T08:10:49;9.68;;;3.22;;
62582;SDS011;48641;51.676;5.808;2022-08-11T08:13:34;13.70;;;3.03;;
62582;SDS011;48641;51.676;5.808;2022-08-11T08:16:20;14.23;;;3.65;;
62582;SDS011;48641;51.676;5.808;2022-08-11T08:19:04;13.57;;;3.30;;
62582;SDS011;48641;51.676;5.808;2022-08-11T08:21:30;10.88;;;3.10;;
62582;SDS011;48641;51.676;5.808;2022-08-11T08:23:56;12.13;;;3.08;;
62582;SDS011;48641;51.676;5.808;2022-08-11T08:26:22;11.10;;;3.60;;
62582;SDS011;48641;51.676;5.808;2022-08-11T08:29:07;11.00;;;3.00;;
62582;SDS011;48641;51.676;5.808;2022-08-11T08:31:52;12.93;;;3.30;;
62582;SDS011;48641;51.676;5.808;2022-08-11T08:34:20;11.80;;;3.65;;
62582;SDS011;48641;51.676;5.808;2022-08-11T08:36:48;10.13;;;3.42;;
62582;SDS011;48641;51.676;5.808;2022-08-11T08:39:19;10.25;;;3.33;;
62582;SDS011;48641;51.676;5.808;2022-08-11T08:41:45;8.95;;;3.53;;
62582;SDS011;48641;51.676;5.808;2022-08-11T08:44:16;9.18;;;2.90;;
62582;SDS011;48641;51.676;5.808;2022-08-11T08:46:45;11.93;;;3.88;;
62582;SDS011;48641;51.676;5.808;2022-08-11T08:49:15;7.57;;;3.03;;
62582;SDS011;48641;51.676;5.808;2022-08-11T08:51:46;10.48;;;3.30;;
62582;SDS011;48641;51.676;5.808;2022-08-11T08:54:16;7.70;;;3.00;;
62582;SDS011;48641;51.676;5.808;2022-08-11T08:56:45;6.65;;;2.90;;
62582;SDS011;48641;51.676;5.808;2022-08-11T08:59:13;7.13;;;3.05;;
62582;SDS011;48641;51.676;5.808;2022-08-11T09:01:42;7.43;;;3.25;;
62582;SDS011;48641;51.676;5.808;2022-08-11T09:04:12;8.57;;;3.22;;
62582;SDS011;48641;51.676;5.808;2022-08-11T09:06:39;11.75;;;3.25;;
62582;SDS011;48641;51.676;5.808;2022-08-11T09:09:07;9.73;;;3.38;;
62582;SDS011;48641;51.676;5.808;2022-08-11T09:11:33;8.15;;;2.95;;
62582;SDS011;48641;51.676;5.808;2022-08-11T09:14:20;8.43;;;2.85;;
62582;SDS011;48641;51.676;5.808;2022-08-11T09:16:48;8.20;;;3.40;;
62582;SDS011;48641;51.676;5.808;2022-08-11T09:19:16;9.02;;;2.92;;
62582;SDS011;48641;51.676;5.808;2022-08-11T09:21:47;8.57;;;3.28;;
62582;SDS011;48641;51.676;5.808;2022-08-11T09:24:35;7.22;;;3.40;;
62582;SDS011;48641;51.676;5.808;2022-08-11T09:27:20;8.13;;;3.00;;
62582;SDS011;48641;51.676;5.808;2022-08-11T09:29:47;8.00;;;3.20;;
62582;SDS011;48641;51.676;5.808;2022-08-11T09:32:18;7.35;;;3.33;;
62582;SDS011;48641;51.676;5.808;2022-08-11T09:34:45;6.47;;;2.90;;
62582;SDS011;48641;51.676;5.808;2022-08-11T09:37:11;9.00;;;3.00;;
62582;SDS011;48641;51.676;5.808;2022-08-11T09:39:56;6.95;;;2.65;;
62582;SDS011;48641;51.676;5.808;2022-08-11T09:42:41;8.98;;;3.40;;
62582;SDS011;48641;51.676;5.808;2022-08-11T09:45:27;6.18;;;2.80;;
62582;SDS011;48641;51.676;5.808;2022-08-11T09:47:53;7.63;;;3.10;;
62582;SDS011;48641;51.676;5.808;2022-08-11T09:50:19;6.22;;;2.80;;
62582;SDS011;48641;51.676;5.808;2022-08-11T09:52:45;6.50;;;3.28;;
62582;SDS011;48641;51.676;5.808;2022-08-11T09:55:15;9.05;;;3.10;;
62582;SDS011;48641;51.676;5.808;2022-08-11T09:57:44;8.40;;;3.53;;
62582;SDS011;48641;51.676;5.808;2022-08-11T10:00:30;6.00;;;3.13;;
62582;SDS011;48641;51.676;5.808;2022-08-11T10:03:01;6.88;;;3.25;;
62582;SDS011;48641;51.676;5.808;2022-08-11T10:05:31;5.40;;;2.80;;
62582;SDS011;48641;51.676;5.808;2022-08-11T10:08:16;8.10;;;3.20;;
62582;SDS011;48641;51.676;5.808;2022-08-11T10:10:43;6.53;;;3.17;;
62582;SDS011;48641;51.676;5.808;2022-08-11T10:13:13;7.07;;;3.00;;
62582;SDS011;48641;51.676;5.808;2022-08-11T10:15:44;6.45;;;3.22;;
62582;SDS011;48641;51.676;5.808;2022-08-11T10:18:15;5.40;;;2.92;;
62582;SDS011;48641;51.676;5.808;2022-08-11T10:26:46;6.60;;;3.08;;
62582;SDS011;48641;51.676;5.808;2022-08-11T10:29:16;7.07;;;3.22;;
62582;SDS011;48641;51.676;5.808;2022-08-11T10:32:01;7.63;;;3.33;;
62582;SDS011;48641;51.676;5.808;2022-08-11T10:34:48;7.25;;;3.20;;
62582;SDS011;48641;51.676;5.808;2022-08-11T10:37:14;7.43;;;3.15;;
62582;SDS011;48641;51.676;5.808;2022-08-11T10:39:41;5.97;;;2.90;;
62582;SDS011;48641;51.676;5.808;2022-08-11T10:42:08;8.55;;;3.13;;
62582;SDS011;48641;51.676;5.808;2022-08-11T10:44:54;6.40;;;3.13;;
62582;SDS011;48641;51.676;5.808;2022-08-11T10:47:22;7.90;;;3.50;;
62582;SDS011;48641;51.676;5.808;2022-08-11T10:50:09;7.22;;;3.70;;
62582;SDS011;48641;51.676;5.808;2022-08-11T10:52:55;6.65;;;3.17;;
62582;SDS011;48641;51.676;5.808;2022-08-11T10:55:41;6.45;;;2.90;;
62582;SDS011;48641;51.676;5.808;2022-08-11T10:58:27;6.93;;;3.38;;
62582;SDS011;48641;51.676;5.808;2022-08-11T11:01:10;7.88;;;3.50;;
62582;SDS011;48641;51.676;5.808;2022-08-11T11:03:38;6.88;;;3.35;;
62582;SDS011;48641;51.676;5.808;2022-08-11T11:06:19;6.50;;;3.10;;
62582;SDS011;48641;51.676;5.808;2022-08-11T11:08:51;6.63;;;3.15;;
62582;SDS011;48641;51.676;5.808;2022-08-11T11:11:25;7.78;;;3.42;;
62582;SDS011;48641;51.676;5.808;2022-08-11T11:14:14;8.05;;;3.20;;
62582;SDS011;48641;51.676;5.808;2022-08-11T11:17:01;8.63;;;3.35;;
62582;SDS011;48641;51.676;5.808;2022-08-11T11:19:35;8.55;;;3.38;;
62582;SDS011;48641;51.676;5.808;2022-08-11T11:22:03;6.78;;;3.00;;
62582;SDS011;48641;51.676;5.808;2022-08-11T11:25:03;6.63;;;3.70;;
62582;SDS011;48641;51.676;5.808;2022-08-11T11:30:18;6.57;;;3.15;;
62582;SDS011;48641;51.676;5.808;2022-08-11T11:35:35;5.88;;;3.10;;
62582;SDS011;48641;51.676;5.808;2022-08-11T11:38:22;5.72;;;3.35;;
62582;SDS011;48641;51.676;5.808;2022-08-11T11:40:49;6.68;;;3.40;;
62582;SDS011;48641;51.676;5.808;2022-08-11T11:43:35;7.10;;;3.20;;
62582;SDS011;48641;51.676;5.808;2022-08-11T11:46:01;5.22;;;2.70;;
62582;SDS011;48641;51.676;5.808;2022-08-11T11:48:29;6.00;;;3.10;;
62582;SDS011;48641;51.676;5.808;2022-08-11T11:50:56;4.72;;;2.75;;
62582;SDS011;48641;51.676;5.808;2022-08-11T11:53:22;5.53;;;2.67;;
62582;SDS011;48641;51.676;5.808;2022-08-11T11:55:48;4.90;;;2.63;;
62582;SDS011;48641;51.676;5.808;2022-08-11T11:58:15;6.43;;;3.33;;
62582;SDS011;48641;51.676;5.808;2022-08-11T12:01:01;6.88;;;3.22;;
62582;SDS011;48641;51.676;5.808;2022-08-11T12:03:45;7.30;;;3.20;;
62582;SDS011;48641;51.676;5.808;2022-08-11T12:06:14;7.93;;;3.80;;
62582;SDS011;48641;51.676;5.808;2022-08-11T12:08:42;8.05;;;3.05;;
62582;SDS011;48641;51.676;5.808;2022-08-11T12:11:12;6.57;;;3.35;;
62582;SDS011;48641;51.676;5.808;2022-08-11T12:14:02;9.63;;;3.28;;
62582;SDS011;48641;51.676;5.808;2022-08-11T12:16:29;9.32;;;3.22;;
62582;SDS011;48641;51.676;5.808;2022-08-11T12:18:58;8.68;;;2.88;;
62582;SDS011;48641;51.676;5.808;2022-08-11T12:21:27;7.20;;;3.03;;
62582;SDS011;48641;51.676;5.808;2022-08-11T12:23:54;8.13;;;3.47;;
62582;SDS011;48641;51.676;5.808;2022-08-11T12:26:40;9.70;;;2.83;;
62582;SDS011;48641;51.676;5.808;2022-08-11T12:29:19;7.15;;;3.25;;
62582;SDS011;48641;51.676;5.808;2022-08-11T12:31:49;9.10;;;3.40;;
62582;SDS011;48641;51.676;5.808;2022-08-11T12:34:15;7.57;;;3.03;;
62582;SDS011;48641;51.676;5.808;2022-08-11T12:36:42;6.53;;;2.83;;
62582;SDS011;48641;51.676;5.808;2022-08-11T12:39:16;10.13;;;3.10;;
62582;SDS011;48641;51.676;5.808;2022-08-11T12:41:45;7.90;;;3.00;;
62582;SDS011;48641;51.676;5.808;2022-08-11T12:44:29;17.05;;;4.47;;
62582;SDS011;48641;51.676;5.808;2022-08-11T12:47:17;9.27;;;3.13;;
62582;SDS011;48641;51.676;5.808;2022-08-11T12:49:46;7.65;;;3.20;;
62582;SDS011;48641;51.676;5.808;2022-08-11T12:52:33;11.30;;;3.33;;
62582;SDS011;48641;51.676;5.808;2022-08-11T12:57:58;10.50;;;3.50;;
62582;SDS011;48641;51.676;5.808;2022-08-11T13:00:41;10.98;;;3.35;;
62582;SDS011;48641;51.676;5.808;2022-08-11T13:03:26;8.40;;;3.30;;
62582;SDS011;48641;51.676;5.808;2022-08-11T13:06:11;8.77;;;2.90;;
62582;SDS011;48641;51.676;5.808;2022-08-11T13:08:37;8.50;;;3.38;;
62582;SDS011;48641;51.676;5.808;2022-08-11T13:11:04;7.63;;;3.10;;
62582;SDS011;48641;51.676;5.808;2022-08-11T13:13:50;7.30;;;3.50;;
62582;SDS011;48641;51.676;5.808;2022-08-11T13:16:18;10.35;;;3.42;;
62582;SDS011;48641;51.676;5.808;2022-08-11T13:18:51;9.98;;;2.92;;
62582;SDS011;48641;51.676;5.808;2022-08-11T13:21:17;8.32;;;3.20;;
62582;SDS011;48641;51.676;5.808;2022-08-11T13:23:43;8.40;;;3.10;;
62582;SDS011;48641;51.676;5.808;2022-08-11T13:26:10;6.45;;;2.95;;
62582;SDS011;48641;51.676;5.808;2022-08-11T13:28:38;6.45;;;3.00;;
62582;SDS011;48641;51.676;5.808;2022-08-11T13:31:05;6.65;;;3.05;;
62582;SDS011;48641;51.676;5.808;2022-08-11T13:33:42;7.00;;;3.38;;
62582;SDS011;48641;51.676;5.808;2022-08-11T13:36:10;9.02;;;3.25;;
62582;SDS011;48641;51.676;5.808;2022-08-11T13:38:39;7.75;;;3.20;;
62582;SDS011;48641;51.676;5.808;2022-08-11T13:41:07;9.15;;;3.17;;
62582;SDS011;48641;51.676;5.808;2022-08-11T13:43:53;6.60;;;2.88;;
62582;SDS011;48641;51.676;5.808;2022-08-11T13:46:21;9.30;;;3.10;;
62582;SDS011;48641;51.676;5.808;2022-08-11T13:48:48;7.33;;;2.97;;
62582;SDS011;48641;51.676;5.808;2022-08-11T13:51:16;7.13;;;2.75;;
62582;SDS011;48641;51.676;5.808;2022-08-11T13:56:32;7.70;;;3.10;;
62582;SDS011;48641;51.676;5.808;2022-08-11T13:59:00;5.80;;;3.17;;
62582;SDS011;48641;51.676;5.808;2022-08-11T14:01:30;7.50;;;3.17;;
62582;SDS011;48641;51.676;5.808;2022-08-11T14:04:00;4.63;;;2.75;;
62582;SDS011;48641;51.676;5.808;2022-08-11T14:06:31;6.28;;;2.88;;
62582;SDS011;48641;51.676;5.808;2022-08-11T14:08:58;6.93;;;3.00;;
62582;SDS011;48641;51.676;5.808;2022-08-11T14:11:24;5.10;;;2.78;;
62582;SDS011;48641;51.676;5.808;2022-08-11T14:14:11;6.15;;;2.92;;
62582;SDS011;48641;51.676;5.808;2022-08-11T14:16:42;7.30;;;2.78;;
62582;SDS011;48641;51.676;5.808;2022-08-11T14:19:11;6.00;;;2.75;;
62582;SDS011;48641;51.676;5.808;2022-08-11T14:21:40;5.13;;;2.90;;
62582;SDS011;48641;51.676;5.808;2022-08-11T14:24:40;6.65;;;2.72;;
62582;SDS011;48641;51.676;5.808;2022-08-11T14:27:10;5.40;;;2.65;;
62582;SDS011;48641;51.676;5.808;2022-08-11T14:29:37;5.68;;;3.20;;
62582;SDS011;48641;51.676;5.808;2022-08-11T14:32:07;6.22;;;2.90;;
62582;SDS011;48641;51.676;5.808;2022-08-11T14:34:35;5.75;;;2.58;;
62582;SDS011;48641;51.676;5.808;2022-08-11T14:37:07;5.20;;;2.80;;
62582;SDS011;48641;51.676;5.808;2022-08-11T14:39:50;5.32;;;2.90;;
62582;SDS011;48641;51.676;5.808;2022-08-11T14:42:18;7.18;;;2.90;;
62582;SDS011;48641;51.676;5.808;2022-08-11T14:45:08;5.65;;;2.83;;
62582;SDS011;48641;51.676;5.808;2022-08-11T14:47:55;7.20;;;2.90;;
62582;SDS011;48641;51.676;5.808;2022-08-11T14:50:25;8.45;;;3.10;;
62582;SDS011;48641;51.676;5.808;2022-08-11T14:55:26;5.93;;;3.17;;
62582;SDS011;48641;51.676;5.808;2022-08-11T14:58:16;10.95;;;3.42;;
62582;SDS011;48641;51.676;5.808;2022-08-11T15:00:43;9.40;;;3.30;;
62582;SDS011;48641;51.676;5.808;2022-08-11T15:03:11;8.02;;;3.35;;
62582;SDS011;48641;51.676;5.808;2022-08-11T15:05:48;5.40;;;2.97;;
62582;SDS011;48641;51.676;5.808;2022-08-11T15:08:19;7.85;;;3.15;;
62582;SDS011;48641;51.676;5.808;2022-08-11T15:11:05;9.52;;;3.40;;
62582;SDS011;48641;51.676;5.808;2022-08-11T15:13:51;5.72;;;3.05;;
62582;SDS011;48641;51.676;5.808;2022-08-11T15:16:18;6.78;;;2.90;;
62582;SDS011;48641;51.676;5.808;2022-08-11T15:19:03;5.80;;;2.80;;
62582;SDS011;48641;51.676;5.808;2022-08-11T15:21:29;4.80;;;2.58;;
62582;SDS011;48641;51.676;5.808;2022-08-11T15:24:18;5.82;;;3.33;;
62582;SDS011;48641;51.676;5.808;2022-08-11T15:26:44;6.70;;;3.40;;
62582;SDS011;48641;51.676;5.808;2022-08-11T15:29:31;6.50;;;2.88;;
62582;SDS011;48641;51.676;5.808;2022-08-11T15:32:17;5.28;;;2.90;;
62582;SDS011;48641;51.676;5.808;2022-08-11T15:34:58;6.18;;;3.35;;
62582;SDS011;48641;51.676;5.808;2022-08-11T15:37:43;8.23;;;3.25;;
62582;SDS011;48641;51.676;5.808;2022-08-11T15:40:17;6.05;;;3.00;;
62582;SDS011;48641;51.676;5.808;2022-08-11T15:43:08;6.03;;;2.72;;
62582;SDS011;48641;51.676;5.808;2022-08-11T15:45:57;6.50;;;2.95;;
62582;SDS011;48641;51.676;5.808;2022-08-11T15:48:34;5.30;;;2.72;;
62582;SDS011;48641;51.676;5.808;2022-08-11T15:51:08;5.88;;;2.95;;
62582;SDS011;48641;51.676;5.808;2022-08-11T15:53:40;7.45;;;3.30;;
62582;SDS011;48641;51.676;5.808;2022-08-11T15:56:14;5.22;;;2.70;;
62582;SDS011;48641;51.676;5.808;2022-08-11T15:58:42;5.13;;;2.67;;
62582;SDS011;48641;51.676;5.808;2022-08-11T16:01:30;6.70;;;2.90;;
62582;SDS011;48641;51.676;5.808;2022-08-11T16:04:17;5.78;;;2.75;;
62582;SDS011;48641;51.676;5.808;2022-08-11T16:09:23;5.82;;;2.92;;
62582;SDS011;48641;51.676;5.808;2022-08-11T16:14:25;5.57;;;2.85;;
62582;SDS011;48641;51.676;5.808;2022-08-11T16:17:13;5.28;;;2.65;;
62582;SDS011;48641;51.676;5.808;2022-08-11T16:19:42;5.70;;;3.00;;
62582;SDS011;48641;51.676;5.808;2022-08-11T16:22:10;6.57;;;2.80;;
62582;SDS011;48641;51.676;5.808;2022-08-11T16:24:40;4.78;;;2.53;;
62582;SDS011;48641;51.676;5.808;2022-08-11T16:27:09;5.70;;;2.83;;
62582;SDS011;48641;51.676;5.808;2022-08-11T16:29:37;6.38;;;2.92;;
62582;SDS011;48641;51.676;5.808;2022-08-11T16:32:11;4.97;;;2.42;;
62582;SDS011;48641;51.676;5.808;2022-08-11T16:34:41;5.90;;;2.97;;
62582;SDS011;48641;51.676;5.808;2022-08-11T16:37:43;5.50;;;2.90;;
62582;SDS011;48641;51.676;5.808;2022-08-11T16:40:28;6.15;;;2.85;;
62582;SDS011;48641;51.676;5.808;2022-08-11T16:42:58;5.25;;;2.60;;
62582;SDS011;48641;51.676;5.808;2022-08-11T16:45:43;4.55;;;2.42;;
62582;SDS011;48641;51.676;5.808;2022-08-11T16:48:32;5.55;;;2.80;;
62582;SDS011;48641;51.676;5.808;2022-08-11T16:51:00;5.72;;;2.60;;
62582;SDS011;48641;51.676;5.808;2022-08-11T16:53:27;5.03;;;2.40;;
62582;SDS011;48641;51.676;5.808;2022-08-11T16:55:54;6.20;;;2.83;;
62582;SDS011;48641;51.676;5.808;2022-08-11T16:58:22;5.38;;;2.50;;
62582;SDS011;48641;51.676;5.808;2022-08-11T17:01:06;6.00;;;2.70;;
62582;SDS011;48641;51.676;5.808;2022-08-11T17:03:34;4.88;;;2.70;;
62582;SDS011;48641;51.676;5.808;2022-08-11T17:06:27;6.07;;;2.88;;
62582;SDS011;48641;51.676;5.808;2022-08-11T17:09:12;5.07;;;2.55;;
62582;SDS011;48641;51.676;5.808;2022-08-11T17:12:01;5.95;;;2.45;;
62582;SDS011;48641;51.676;5.808;2022-08-11T17:14:48;7.38;;;2.78;;
62582;SDS011;48641;51.676;5.808;2022-08-11T17:17:25;5.82;;;2.70;;
62582;SDS011;48641;51.676;5.808;2022-08-11T17:19:54;5.50;;;2.45;;
62582;SDS011;48641;51.676;5.808;2022-08-11T17:22:24;6.28;;;2.85;;
62582;SDS011;48641;51.676;5.808;2022-08-11T17:25:10;6.05;;;2.53;;
62582;SDS011;48641;51.676;5.808;2022-08-11T17:27:37;5.93;;;2.60;;
62582;SDS011;48641;51.676;5.808;2022-08-11T17:30:04;5.63;;;2.75;;
62582;SDS011;48641;51.676;5.808;2022-08-11T17:32:33;6.10;;;2.72;;
62582;SDS011;48641;51.676;5.808;2022-08-11T17:35:22;5.70;;;2.80;;
62582;SDS011;48641;51.676;5.808;2022-08-11T17:37:58;6.93;;;2.90;;
62582;SDS011;48641;51.676;5.808;2022-08-11T17:40:25;5.50;;;2.67;;
62582;SDS011;48641;51.676;5.808;2022-08-11T17:42:52;4.88;;;2.50;;
62582;SDS011;48641;51.676;5.808;2022-08-11T17:45:39;5.18;;;2.80;;
62582;SDS011;48641;51.676;5.808;2022-08-11T17:48:26;6.35;;;2.83;;
62582;SDS011;48641;51.676;5.808;2022-08-11T17:51:00;6.13;;;2.53;;
62582;SDS011;48641;51.676;5.808;2022-08-11T17:53:31;5.00;;;2.40;;
62582;SDS011;48641;51.676;5.808;2022-08-11T17:56:20;5.93;;;2.60;;
62582;SDS011;48641;51.676;5.808;2022-08-11T17:59:06;6.60;;;2.90;;
62582;SDS011;48641;51.676;5.808;2022-08-11T18:01:52;6.38;;;3.03;;
62582;SDS011;48641;51.676;5.808;2022-08-11T18:04:20;6.22;;;2.88;;
62582;SDS011;48641;51.676;5.808;2022-08-11T18:06:47;6.57;;;2.97;;
62582;SDS011;48641;51.676;5.808;2022-08-11T18:12:02;5.70;;;2.65;;
62582;SDS011;48641;51.676;5.808;2022-08-11T18:14:49;6.05;;;2.80;;
62582;SDS011;48641;51.676;5.808;2022-08-11T18:17:35;6.80;;;2.65;;
62582;SDS011;48641;51.676;5.808;2022-08-11T18:20:20;6.53;;;2.72;;
62582;SDS011;48641;51.676;5.808;2022-08-11T18:23:06;4.93;;;2.53;;
62582;SDS011;48641;51.676;5.808;2022-08-11T18:25:54;6.05;;;2.83;;
62582;SDS011;48641;51.676;5.808;2022-08-11T18:28:43;6.45;;;2.80;;
62582;SDS011;48641;51.676;5.808;2022-08-11T18:31:29;5.57;;;2.70;;
62582;SDS011;48641;51.676;5.808;2022-08-11T18:34:19;7.13;;;2.70;;
62582;SDS011;48641;51.676;5.808;2022-08-11T18:37:10;4.75;;;2.60;;
62582;SDS011;48641;51.676;5.808;2022-08-11T18:40:10;5.75;;;2.63;;
62582;SDS011;48641;51.676;5.808;2022-08-11T18:42:59;4.70;;;2.45;;
62582;SDS011;48641;51.676;5.808;2022-08-11T18:45:47;6.03;;;2.70;;
62582;SDS011;48641;51.676;5.808;2022-08-11T18:48:35;6.80;;;2.90;;
62582;SDS011;48641;51.676;5.808;2022-08-11T18:51:23;6.07;;;2.70;;
62582;SDS011;48641;51.676;5.808;2022-08-11T18:54:09;5.88;;;2.50;;
62582;SDS011;48641;51.676;5.808;2022-08-11T18:56:55;5.38;;;2.47;;
62582;SDS011;48641;51.676;5.808;2022-08-11T19:02:28;5.53;;;2.90;;
62582;SDS011;48641;51.676;5.808;2022-08-11T19:05:14;4.85;;;2.50;;
62582;SDS011;48641;51.676;5.808;2022-08-11T19:08:01;5.32;;;2.65;;
62582;SDS011;48641;51.676;5.808;2022-08-11T19:10:46;6.85;;;2.50;;
62582;SDS011;48641;51.676;5.808;2022-08-11T19:13:31;5.53;;;2.63;;
62582;SDS011;48641;51.676;5.808;2022-08-11T19:16:17;5.32;;;2.58;;
62582;SDS011;48641;51.676;5.808;2022-08-11T19:19:05;5.85;;;2.53;;
62582;SDS011;48641;51.676;5.808;2022-08-11T19:21:50;5.18;;;2.50;;